createdAt,value
2023-02-19T03:57:15.600Z,2.60
2023-02-19T08:14:59.204Z,4.90
2023-02-19T08:31:32.248Z,5.40
2023-02-19T09:36:06.184Z,8.50
2023-02-19T09:46:52.488Z,9.50
2023-02-19T09:51:50.506Z,9.90
2023-02-19T09:56:44.386Z,10.40
2023-02-19T10:07:25.261Z,11.50
2023-02-19T10:12:25.164Z,12.10
2023-02-19T10:17:25.083Z,12.70
2023-02-19T10:22:21.080Z,13.10
2023-02-19T10:27:15.870Z,13.60
2023-02-19T10:32:23.069Z,14.30
2023-02-19T10:37:19.997Z,15.50
2023-02-19T10:42:21.083Z,16.00
2023-02-19T10:47:20.291Z,16.40
2023-02-19T10:52:19.160Z,16.50
2023-02-19T10:57:30.288Z,16.70
2023-02-19T11:02:24.403Z,16.90
2023-02-19T11:07:21.737Z,17.00
2023-02-19T11:12:24.971Z,17.10
2023-02-19T11:17:26.309Z,17.30
2023-02-19T11:22:32.294Z,17.50
2023-02-19T11:27:26.903Z,18.00
2023-02-19T11:32:29.436Z,18.10
2023-02-19T11:37:23.236Z,18.20
2023-02-19T11:42:38.922Z,18.00
2023-02-19T11:48:06.937Z,18.10
2023-02-19T11:53:15.890Z,18.40
2023-02-19T11:58:31.349Z,18.50
2023-02-19T12:03:51.763Z,18.30
2023-02-19T12:09:14.271Z,18.40
2023-02-19T12:14:46.531Z,18.60
2023-02-19T12:19:55.377Z,18.60
2023-02-19T12:25:20.057Z,18.70
2023-02-19T12:30:31.984Z,18.80
2023-02-19T12:35:44.151Z,19.10
2023-02-19T12:41:02.551Z,19.30
2023-02-19T12:46:00.774Z,18.90
2023-02-19T12:50:59.287Z,18.90
2023-02-19T12:55:53.963Z,18.90
2023-02-19T13:00:51.953Z,19.20
2023-02-19T13:05:51.204Z,18.90
2023-02-19T13:10:50.871Z,19.50
2023-02-19T13:15:48.709Z,19.60
2023-02-19T13:20:44.933Z,20.20
2023-02-19T13:25:57.985Z,21.30
2023-02-19T13:31:12.938Z,22.40
2023-02-19T13:36:14.943Z,22.60
2023-02-19T13:41:20.088Z,22.20
2023-02-19T13:46:17.713Z,23.30
2023-02-19T13:51:41.669Z,22.50
2023-02-19T13:56:41.657Z,23.00
2023-02-19T14:02:07.625Z,23.30
2023-02-19T14:07:36.523Z,25.30
2023-02-19T14:12:35.109Z,27.50
2023-02-19T14:17:40.656Z,27.80
2023-02-19T14:23:01.552Z,25.80
2023-02-19T14:28:02.534Z,25.30
2023-02-19T14:33:09.878Z,27.40
2023-02-19T14:38:06.066Z,27.90
2023-02-19T14:43:01.927Z,26.90
2023-02-19T14:47:58.788Z,25.00
2023-02-19T14:52:55.360Z,23.90
2023-02-19T14:57:51.681Z,25.20
2023-02-19T15:02:46.570Z,26.20
2023-02-19T15:07:40.210Z,25.20
2023-02-19T15:12:37.523Z,23.80
2023-02-19T15:17:33.570Z,21.50
2023-02-19T15:22:29.763Z,18.40
2023-02-19T15:27:26.157Z,17.10
2023-02-19T15:32:22.754Z,16.60
2023-02-19T15:37:16.441Z,16.30
2023-02-19T15:42:18.055Z,16.10
2023-02-19T15:47:21.974Z,15.90
2023-02-19T15:52:25.747Z,15.70
2023-02-19T15:57:26.714Z,15.40
2023-02-19T16:02:20.371Z,15.10
2023-02-19T16:07:25.748Z,14.90
2023-02-19T16:12:23.777Z,14.70
2023-02-19T16:17:23.293Z,14.50
2023-02-19T16:22:21.842Z,14.20
2023-02-19T20:55:26.258Z,10.50
2023-02-19T21:00:20.830Z,10.10
2023-02-19T21:05:14.727Z,9.90
2023-02-19T21:10:09.348Z,9.70
